createdAt,value
2017-12-29T00:02:14.075Z,97565.55
2017-12-29T00:04:43.154Z,97572.01
2017-12-29T00:07:12.157Z,97573.13
2017-12-29T00:09:40.428Z,97579.80
2017-12-29T00:12:08.734Z,97576.87
2017-12-29T00:14:37.782Z,97580.47
2017-12-29T00:17:06.062Z,97587.84
2017-12-29T00:19:35.179Z,97589.70
2017-12-29T00:22:06.861Z,97591.14
2017-12-29T00:24:35.215Z,97599.73
2017-12-29T00:27:03.461Z,97600.61
2017-12-29T00:29:31.744Z,97602.61
2017-12-29T00:32:00.024Z,97604.82
2017-12-29T00:34:29.418Z,97600.67
2017-12-29T00:36:57.679Z,97602.23
2017-12-29T00:39:27.415Z,97606.91
2017-12-29T00:41:55.691Z,97601.09
2017-12-29T00:44:23.968Z,97605.33
2017-12-29T00:46:52.277Z,97610.08
2017-12-29T00:49:20.687Z,97622.23
2017-12-29T00:51:48.988Z,97617.73
2017-12-29T00:54:17.357Z,97620.20
2017-12-29T00:56:45.616Z,97624.45
2017-12-29T00:59:13.964Z,97626.01
2017-12-29T01:01:42.319Z,97627.49
2017-12-29T01:04:10.589Z,97633.56
2017-12-29T01:06:39.282Z,97633.70
2017-12-29T01:09:07.561Z,97634.14
2017-12-29T01:11:35.886Z,97635.27
2017-12-29T01:14:04.968Z,97631.88
2017-12-29T01:16:33.244Z,97636.99
2017-12-29T01:19:01.597Z,97638.68
2017-12-29T01:21:30.006Z,97630.96
2017-12-29T01:23:58.310Z,97629.55
2017-12-29T01:26:27.357Z,97633.19
2017-12-29T01:28:55.659Z,97632.72
2017-12-29T01:31:23.946Z,97634.23
2017-12-29T01:33:52.313Z,97630.20
2017-12-29T01:36:20.573Z,97628.13
2017-12-29T01:38:48.879Z,97628.60
2017-12-29T01:41:18.078Z,97625.28
2017-12-29T01:43:46.354Z,97623.20
2017-12-29T01:46:14.666Z,97624.21
2017-12-29T01:48:42.946Z,97626.45
2017-12-29T01:51:11.232Z,97630.81
2017-12-29T01:53:39.524Z,97626.97
2017-12-29T01:56:07.806Z,97627.37
2017-12-29T01:58:36.170Z,97628.61
2017-12-29T02:01:04.462Z,97628.02
2017-12-29T02:03:32.782Z,97628.30
2017-12-29T02:06:01.125Z,97628.19
2017-12-29T02:08:29.437Z,97634.31
2017-12-29T02:10:58.840Z,97639.40
2017-12-29T02:13:27.116Z,97638.33
2017-12-29T02:15:55.464Z,97643.16
2017-12-29T02:18:23.734Z,97640.46
2017-12-29T02:20:52.569Z,97640.83
2017-12-29T02:23:21.045Z,97636.17
2017-12-29T02:25:49.385Z,97634.19
2017-12-29T02:28:17.708Z,97633.59
2017-12-29T02:30:46.431Z,97640.50
2017-12-29T02:33:14.775Z,97627.38
2017-12-29T02:35:43.256Z,97620.99
2017-12-29T02:38:11.611Z,97629.79
2017-12-29T02:40:39.906Z,97626.67
2017-12-29T02:43:08.276Z,97633.95
2017-12-29T02:45:36.636Z,97637.70
2017-12-29T02:48:04.953Z,97641.16
2017-12-29T02:50:33.433Z,97644.08
2017-12-29T02:53:01.742Z,97639.64
2017-12-29T02:55:30.093Z,97635.70
2017-12-29T02:57:58.378Z,97635.59
2017-12-29T03:00:26.825Z,97637.51
2017-12-29T03:02:55.134Z,97638.28
2017-12-29T03:05:23.463Z,97630.37
2017-12-29T03:07:51.870Z,97630.42
2017-12-29T03:10:21.397Z,97632.30
2017-12-29T03:12:49.748Z,97628.38
2017-12-29T03:15:18.538Z,97638.52
2017-12-29T03:17:46.951Z,97635.89
2017-12-29T03:20:15.324Z,97632.13
2017-12-29T03:22:43.711Z,97632.36
2017-12-29T03:25:12.802Z,97636.42
2017-12-29T03:27:41.076Z,97634.37
2017-12-29T03:30:09.415Z,97639.92
2017-12-29T03:32:37.842Z,97631.27
2017-12-29T03:35:07.041Z,97630.24
2017-12-29T03:37:35.751Z,97623.28
2017-12-29T03:40:04.821Z,97622.12
2017-12-29T03:42:33.245Z,97614.36
2017-12-29T03:45:01.521Z,97612.41
2017-12-29T03:47:29.857Z,97610.24
2017-12-29T03:49:58.245Z,97608.84
2017-12-29T03:52:26.724Z,97608.91
2017-12-29T03:54:55.033Z,97609.06
2017-12-29T03:57:23.393Z,97608.81
2017-12-29T03:59:52.484Z,97603.61
2017-12-29T04:02:20.800Z,97602.09
2017-12-29T04:04:49.180Z,97604.38
2017-12-29T04:07:17.563Z,97592.81
2017-12-29T04:09:45.844Z,97600.56
2017-12-29T04:12:14.539Z,97605.20
2017-12-29T04:14:42.825Z,97611.33
2017-12-29T04:17:11.648Z,97610.53
2017-12-29T04:19:40.029Z,97614.63
2017-12-29T04:22:08.295Z,97612.50
2017-12-29T04:24:37.042Z,97615.39
2017-12-29T04:27:05.734Z,97617.88
2017-12-29T04:29:34.028Z,97621.91
2017-12-29T04:32:02.803Z,97618.97
2017-12-29T04:34:31.097Z,97616.95
2017-12-29T04:36:59.369Z,97623.36
2017-12-29T04:39:27.633Z,97620.00
2017-12-29T04:41:56.337Z,97613.59
2017-12-29T04:44:25.131Z,97614.38
2017-12-29T04:46:53.434Z,97621.13
2017-12-29T04:49:21.720Z,97614.09
2017-12-29T04:51:50.460Z,97620.59
2017-12-29T04:54:18.785Z,97609.34
2017-12-29T04:56:47.061Z,97608.76
2017-12-29T04:59:16.080Z,97615.27
2017-12-29T05:01:45.150Z,97613.80
2017-12-29T05:04:13.945Z,97613.42
2017-12-29T05:06:42.602Z,97611.25
2017-12-29T05:09:10.861Z,97619.27
2017-12-29T05:11:39.120Z,97618.33
2017-12-29T05:14:07.843Z,97614.28
2017-12-29T05:16:36.085Z,97616.02
2017-12-29T05:19:04.825Z,97615.92
2017-12-29T05:21:33.163Z,97616.30
2017-12-29T05:24:01.851Z,97614.39
2017-12-29T05:26:30.128Z,97618.55
2017-12-29T05:28:58.408Z,97621.98
2017-12-29T05:31:26.659Z,97618.66
2017-12-29T05:33:55.706Z,97635.22
2017-12-29T05:36:23.987Z,97631.27
2017-12-29T05:38:52.527Z,97633.48
2017-12-29T05:41:21.545Z,97632.23
2017-12-29T05:43:49.833Z,97639.30
2017-12-29T05:46:18.104Z,97645.58
2017-12-29T05:48:46.363Z,97633.79
2017-12-29T05:51:14.662Z,97633.75
2017-12-29T05:53:42.936Z,97632.97
2017-12-29T05:56:11.206Z,97629.90
2017-12-29T05:58:39.505Z,97627.72
2017-12-29T06:01:07.771Z,97625.25
2017-12-29T06:03:36.067Z,97630.30
2017-12-29T06:06:04.331Z,97631.42
2017-12-29T06:08:32.982Z,97627.66
2017-12-29T06:11:01.327Z,97620.36
2017-12-29T06:13:29.560Z,97624.23
2017-12-29T06:15:57.845Z,97629.80
2017-12-29T06:18:26.114Z,97636.05
2017-12-29T06:20:54.367Z,97641.08
2017-12-29T06:23:23.416Z,97639.11
2017-12-29T06:25:51.682Z,97635.51
2017-12-29T06:28:19.947Z,97631.26
2017-12-29T06:30:48.231Z,97641.06
2017-12-29T06:33:16.500Z,97647.52
2017-12-29T06:35:44.782Z,97655.53
2017-12-29T06:38:13.043Z,97646.61
2017-12-29T06:40:41.322Z,97641.80
2017-12-29T06:43:09.597Z,97643.22
2017-12-29T06:45:37.865Z,97635.14
2017-12-29T06:48:07.105Z,97638.05
2017-12-29T06:50:35.373Z,97643.28
2017-12-29T06:53:03.643Z,97639.00
2017-12-29T06:55:31.935Z,97643.48
2017-12-29T06:58:00.204Z,97641.58
2017-12-29T07:00:28.493Z,97641.45
2017-12-29T07:02:56.771Z,97641.55
2017-12-29T07:05:25.029Z,97640.67
2017-12-29T07:07:53.316Z,97639.66
2017-12-29T07:10:21.563Z,97648.61
2017-12-29T07:12:49.839Z,97647.32
2017-12-29T07:15:18.112Z,97650.85
2017-12-29T07:17:47.140Z,97647.53
2017-12-29T07:20:15.414Z,97646.78
2017-12-29T07:22:43.699Z,97642.97
2017-12-29T07:25:11.959Z,97643.65
2017-12-29T07:27:40.659Z,97638.02
2017-12-29T07:30:08.933Z,97637.75
2017-12-29T07:32:37.230Z,97637.51
2017-12-29T07:35:05.509Z,97635.06
2017-12-29T07:37:33.778Z,97643.17
2017-12-29T07:40:02.456Z,97638.08
2017-12-29T07:42:30.736Z,97637.10
2017-12-29T07:44:58.997Z,97638.99
2017-12-29T07:47:27.268Z,97641.45
2017-12-29T07:49:55.562Z,97636.58
2017-12-29T07:52:23.839Z,97635.02
2017-12-29T07:54:52.527Z,97629.21
2017-12-29T07:57:20.794Z,97634.50
2017-12-29T07:59:49.044Z,97627.64
2017-12-29T08:02:17.330Z,97633.45
2017-12-29T08:04:46.362Z,97628.38
2017-12-29T08:07:14.653Z,97635.04
2017-12-29T08:09:42.914Z,97635.98
2017-12-29T08:12:11.180Z,97633.00
2017-12-29T08:14:39.468Z,97626.61
2017-12-29T08:17:07.752Z,97628.63
2017-12-29T08:19:36.039Z,97636.16
2017-12-29T08:22:04.300Z,97637.53
2017-12-29T08:24:32.575Z,97637.44
2017-12-29T08:27:00.849Z,97639.31
2017-12-29T08:29:29.116Z,97639.21
2017-12-29T08:31:57.373Z,97623.34
2017-12-29T08:34:26.027Z,97624.02
2017-12-29T08:36:54.303Z,97627.25
2017-12-29T08:39:22.578Z,97628.95
2017-12-29T08:41:50.850Z,97630.11
2017-12-29T08:44:19.102Z,97626.41
2017-12-29T08:46:47.359Z,97630.55
2017-12-29T08:49:16.414Z,97626.55
2017-12-29T08:51:44.654Z,97620.88
2017-12-29T08:54:12.961Z,97616.86
2017-12-29T08:56:41.249Z,97607.45
2017-12-29T08:59:09.511Z,97605.83
2017-12-29T09:01:37.781Z,97601.00
2017-12-29T09:04:06.479Z,97596.95
2017-12-29T09:06:34.739Z,97591.15
2017-12-29T09:09:03.032Z,97583.16
2017-12-29T09:11:31.337Z,97582.99
2017-12-29T09:13:59.592Z,97589.34
2017-12-29T09:16:28.373Z,97582.28
2017-12-29T09:18:56.641Z,97572.83
2017-12-29T09:21:24.910Z,97575.52
2017-12-29T09:23:53.196Z,97568.52
2017-12-29T09:26:21.443Z,97569.23
2017-12-29T09:28:49.726Z,97571.03
2017-12-29T09:31:18.002Z,97571.27
2017-12-29T09:33:46.745Z,97565.30
2017-12-29T09:36:15.076Z,97567.43
2017-12-29T09:38:43.340Z,97566.17
2017-12-29T09:41:12.274Z,97560.45
2017-12-29T09:43:40.579Z,97566.20
2017-12-29T09:46:08.834Z,97564.75
2017-12-29T09:48:37.103Z,97556.73
2017-12-29T09:51:05.388Z,97559.14
2017-12-29T09:53:33.651Z,97557.88
2017-12-29T09:56:02.432Z,97550.84
2017-12-29T09:58:30.717Z,97554.58
2017-12-29T10:00:58.969Z,97559.14
2017-12-29T10:03:27.973Z,97556.84
2017-12-29T10:05:56.265Z,97567.44
2017-12-29T10:08:24.512Z,97560.09
2017-12-29T10:10:52.773Z,97554.08
2017-12-29T10:13:21.847Z,97551.84
2017-12-29T10:15:50.106Z,97543.41
2017-12-29T10:18:18.366Z,97531.33
2017-12-29T10:20:46.645Z,97528.67
2017-12-29T10:23:14.908Z,97522.42
2017-12-29T10:25:43.200Z,97513.44
2017-12-29T10:28:11.474Z,97517.11
2017-12-29T10:30:39.753Z,97512.53
2017-12-29T10:33:08.040Z,97525.17
2017-12-29T10:35:36.323Z,97523.16
2017-12-29T10:38:04.607Z,97530.88
2017-12-29T10:40:33.708Z,97520.08
2017-12-29T10:43:01.977Z,97515.28
2017-12-29T10:45:30.226Z,97507.88
2017-12-29T10:47:58.526Z,97512.62
2017-12-29T10:50:26.790Z,97514.03
2017-12-29T10:52:55.069Z,97520.96
2017-12-29T10:55:23.368Z,97522.22
2017-12-29T10:57:51.658Z,97516.75
2017-12-29T11:00:19.937Z,97518.76
2017-12-29T11:02:48.238Z,97511.49
2017-12-29T11:05:16.499Z,97506.23
2017-12-29T11:07:44.781Z,97498.89
2017-12-29T11:10:13.683Z,97499.30
2017-12-29T11:12:41.946Z,97488.88
2017-12-29T11:15:10.228Z,97475.29
2017-12-29T11:17:38.506Z,97478.85
2017-12-29T11:20:06.789Z,97461.70
2017-12-29T11:22:35.036Z,97464.06
2017-12-29T11:25:03.306Z,97457.83
2017-12-29T11:27:31.574Z,97460.20
2017-12-29T11:29:59.826Z,97448.79
2017-12-29T11:32:28.874Z,97452.05
2017-12-29T11:34:57.959Z,97439.78
2017-12-29T11:37:26.229Z,97426.07
2017-12-29T11:39:54.508Z,97416.64
2017-12-29T11:42:22.785Z,97408.45
2017-12-29T11:44:51.494Z,97405.77
2017-12-29T11:47:19.849Z,97396.38
2017-12-29T11:49:48.114Z,97383.55
2017-12-29T11:52:16.367Z,97380.97
2017-12-29T11:54:45.431Z,97388.66
2017-12-29T11:57:13.924Z,97387.61
2017-12-29T11:59:42.180Z,97384.31
2017-12-29T12:02:10.494Z,97386.89
2017-12-29T12:04:39.549Z,97380.97
2017-12-29T12:07:07.836Z,97377.86
2017-12-29T12:09:36.096Z,97370.52
2017-12-29T12:12:05.259Z,97363.17
2017-12-29T12:14:33.555Z,97351.20
2017-12-29T12:17:01.819Z,97346.35
2017-12-29T12:19:30.105Z,97348.97
2017-12-29T12:21:58.393Z,97331.91
2017-12-29T12:24:26.844Z,97326.51
2017-12-29T12:26:55.885Z,97325.94
2017-12-29T12:29:24.165Z,97312.16
2017-12-29T12:31:52.461Z,97306.98
2017-12-29T12:34:20.737Z,97302.78
2017-12-29T12:36:49.022Z,97292.86
2017-12-29T12:39:17.272Z,97276.31
2017-12-29T12:41:45.537Z,97277.39
2017-12-29T12:44:13.830Z,97268.57
2017-12-29T12:46:42.094Z,97256.23
2017-12-29T12:49:10.366Z,97260.66
2017-12-29T12:51:38.648Z,97250.66
2017-12-29T12:54:06.909Z,97254.03
2017-12-29T12:56:35.163Z,97242.58
2017-12-29T12:59:04.225Z,97238.04
2017-12-29T13:01:32.490Z,97229.80
2017-12-29T13:04:00.750Z,97222.45
2017-12-29T13:06:29.057Z,97221.50
2017-12-29T13:08:57.325Z,97219.14
2017-12-29T13:11:25.991Z,97216.07
2017-12-29T13:13:54.405Z,97211.56
2017-12-29T13:16:22.654Z,97205.51
2017-12-29T13:18:50.922Z,97200.97
2017-12-29T13:21:19.200Z,97198.31
2017-12-29T13:23:47.472Z,97203.48
2017-12-29T13:26:15.744Z,97194.11
2017-12-29T13:28:44.024Z,97194.77
2017-12-29T13:31:12.293Z,97185.39
2017-12-29T13:33:40.556Z,97172.55
2017-12-29T13:36:09.910Z,97157.52
2017-12-29T13:38:38.173Z,97159.47
2017-12-29T13:41:06.452Z,97145.89
2017-12-29T13:43:34.741Z,97140.31
2017-12-29T13:46:03.008Z,97135.15
2017-12-29T13:48:31.255Z,97131.64
2017-12-29T13:50:59.589Z,97121.20
2017-12-29T13:53:27.816Z,97112.48
2017-12-29T13:55:56.067Z,97100.45
2017-12-29T13:58:24.344Z,97101.41
2017-12-29T14:00:52.622Z,97107.95
2017-12-29T14:03:20.878Z,97091.33
2017-12-29T14:05:49.224Z,97072.11
2017-12-29T14:08:17.493Z,97070.98
2017-12-29T14:10:45.756Z,97057.88
2017-12-29T14:13:14.048Z,97053.14
2017-12-29T14:15:42.317Z,97050.95
2017-12-29T14:18:11.374Z,97051.02
2017-12-29T14:20:40.033Z,97049.10
2017-12-29T14:23:08.303Z,97040.87
2017-12-29T14:25:36.610Z,97039.44
2017-12-29T14:28:04.879Z,97030.00
2017-12-29T14:30:33.163Z,97029.52
2017-12-29T14:33:01.464Z,97027.17
2017-12-29T14:35:29.734Z,97031.38
2017-12-29T14:37:57.984Z,97030.10
2017-12-29T14:40:26.292Z,97031.66
2017-12-29T14:42:54.543Z,97025.31
2017-12-29T14:45:22.801Z,97031.19
2017-12-29T14:47:51.088Z,97025.47
2017-12-29T14:50:19.341Z,97015.67
2017-12-29T14:52:47.606Z,97008.90
2017-12-29T14:55:15.942Z,97007.09
2017-12-29T14:57:44.216Z,96981.11
2017-12-29T15:00:12.470Z,96973.33
2017-12-29T15:02:40.758Z,96967.84
2017-12-29T15:05:09.054Z,96958.41
2017-12-29T15:07:37.323Z,96964.78
2017-12-29T15:10:05.662Z,96950.44
2017-12-29T15:12:33.941Z,96948.89
2017-12-29T15:15:02.231Z,96948.09
2017-12-29T15:17:30.520Z,96939.72
2017-12-29T15:19:58.781Z,96943.92
2017-12-29T15:22:27.092Z,96939.39
2017-12-29T15:24:55.774Z,96917.46
2017-12-29T15:27:24.050Z,96931.09
2017-12-29T15:29:52.321Z,96921.73
2017-12-29T15:32:20.591Z,96925.86
2017-12-29T15:34:48.844Z,96938.72
2017-12-29T15:37:17.137Z,96928.99
2017-12-29T15:39:45.437Z,96920.92
2017-12-29T15:42:13.738Z,96905.30
2017-12-29T15:44:42.079Z,96906.52
2017-12-29T15:47:10.334Z,96898.10
2017-12-29T15:49:38.600Z,96886.28
2017-12-29T15:52:07.652Z,96880.87
2017-12-29T15:54:35.932Z,96887.03
2017-12-29T15:57:04.230Z,96891.37
2017-12-29T15:59:32.504Z,96885.82
2017-12-29T16:02:04.024Z,96888.25
2017-12-29T16:04:32.293Z,96872.03
2017-12-29T16:07:01.027Z,96877.38
2017-12-29T16:09:29.361Z,96876.05
2017-12-29T16:11:57.650Z,96866.88
2017-12-29T16:14:25.914Z,96859.25
2017-12-29T16:16:54.213Z,96851.75
2017-12-29T16:19:22.525Z,96857.09
2017-12-29T16:21:50.829Z,96855.20
2017-12-29T16:24:19.133Z,96847.88
2017-12-29T16:26:47.420Z,96842.63
2017-12-29T16:29:15.722Z,96844.06
2017-12-29T16:31:43.978Z,96847.94
2017-12-29T16:34:12.291Z,96844.06
2017-12-29T16:36:40.578Z,96844.55
2017-12-29T16:39:08.845Z,96838.23
2017-12-29T16:41:37.127Z,96823.85
2017-12-29T16:44:05.404Z,96810.48
2017-12-29T16:46:33.746Z,96808.16
2017-12-29T16:49:02.080Z,96803.48
2017-12-29T16:51:30.363Z,96798.80
2017-12-29T16:53:59.474Z,96793.32
2017-12-29T16:56:27.757Z,96792.98
2017-12-29T16:58:57.537Z,96799.36
2017-12-29T17:01:25.834Z,96802.05
2017-12-29T17:03:54.905Z,96786.26
2017-12-29T17:06:23.233Z,96782.39
2017-12-29T17:08:51.524Z,96772.16
2017-12-29T17:11:19.825Z,96770.05
2017-12-29T17:13:48.131Z,96757.83
2017-12-29T17:16:16.438Z,96756.61
2017-12-29T17:18:44.718Z,96752.59
2017-12-29T17:21:13.000Z,96755.66
2017-12-29T17:23:41.300Z,96735.43
2017-12-29T17:26:09.667Z,96743.04
2017-12-29T17:28:37.891Z,96747.36
2017-12-29T17:31:07.071Z,96736.55
2017-12-29T17:33:35.416Z,96739.13
2017-12-29T17:36:03.754Z,96721.83
2017-12-29T17:38:33.212Z,96721.97
2017-12-29T17:41:01.496Z,96716.98
2017-12-29T17:43:29.797Z,96712.95
2017-12-29T17:45:58.054Z,96703.80
2017-12-29T17:48:26.329Z,96698.20
2017-12-29T17:50:54.640Z,96695.70
2017-12-29T17:53:22.953Z,96696.33
2017-12-29T17:55:51.244Z,96703.95
2017-12-29T17:58:19.511Z,96707.86
2017-12-29T18:00:47.823Z,96704.31
2017-12-29T18:03:16.131Z,96707.30
2017-12-29T18:05:44.421Z,96709.39
2017-12-29T18:08:12.698Z,96708.34
2017-12-29T18:10:41.054Z,96702.78
2017-12-29T18:13:09.325Z,96699.42
2017-12-29T18:15:37.601Z,96703.41
2017-12-29T18:18:05.894Z,96699.80
2017-12-29T18:20:34.165Z,96700.94
2017-12-29T18:23:02.557Z,96705.18
2017-12-29T18:25:30.866Z,96699.50
2017-12-29T18:27:59.139Z,96706.41
2017-12-29T18:30:27.429Z,96705.63
2017-12-29T18:32:55.700Z,96710.06
2017-12-29T18:35:23.963Z,96708.37
2017-12-29T18:37:52.259Z,96710.69
2017-12-29T18:40:20.524Z,96712.94
2017-12-29T18:42:48.831Z,96704.59
2017-12-29T18:45:17.120Z,96709.92
2017-12-29T18:47:45.408Z,96707.69
2017-12-29T18:50:14.081Z,96705.63
2017-12-29T18:52:42.372Z,96701.14
2017-12-29T18:55:10.662Z,96709.42
2017-12-29T18:57:38.972Z,96713.67
2017-12-29T19:00:08.006Z,96705.41
2017-12-29T19:02:37.066Z,96711.53
2017-12-29T19:05:05.347Z,96708.41
2017-12-29T19:07:35.366Z,96710.04
2017-12-29T19:10:03.671Z,96707.44
2017-12-29T19:12:32.016Z,96708.52
2017-12-29T19:15:01.097Z,96717.00
2017-12-29T19:17:29.373Z,96720.61
2017-12-29T19:19:57.652Z,96725.30
2017-12-29T19:22:25.960Z,96730.58
2017-12-29T19:24:54.239Z,96737.30
2017-12-29T19:27:22.504Z,96746.39
2017-12-29T19:29:51.573Z,96744.91
2017-12-29T19:32:19.850Z,96747.68
2017-12-29T19:34:48.126Z,96754.93
2017-12-29T19:37:16.414Z,96754.59
2017-12-29T19:39:44.666Z,96764.86
2017-12-29T19:42:12.943Z,96762.52
2017-12-29T19:44:41.217Z,96756.70
2017-12-29T19:47:09.491Z,96753.70
2017-12-29T19:49:37.773Z,96765.59
2017-12-29T19:52:06.091Z,96760.36
2017-12-29T19:54:35.145Z,96770.77
2017-12-29T19:57:03.416Z,96774.16
2017-12-29T19:59:31.693Z,96776.59
2017-12-29T20:01:59.997Z,96783.34
2017-12-29T20:04:28.274Z,96796.29
2017-12-29T20:06:56.564Z,96799.96
2017-12-29T20:09:24.866Z,96816.98
2017-12-29T20:11:53.146Z,96819.69
2017-12-29T20:14:22.172Z,96828.31
2017-12-29T20:16:50.465Z,96843.20
2017-12-29T20:19:18.753Z,96848.77
2017-12-29T20:21:47.154Z,96856.62
2017-12-29T20:24:15.440Z,96867.19
2017-12-29T20:26:44.924Z,96873.52
2017-12-29T20:29:13.180Z,96872.83
2017-12-29T20:31:41.763Z,96882.56
2017-12-29T20:34:10.038Z,96885.08
2017-12-29T20:36:38.306Z,96899.79
2017-12-29T20:39:06.609Z,96895.52
2017-12-29T20:41:34.908Z,96905.58
2017-12-29T20:44:03.171Z,96908.64
2017-12-29T20:46:31.460Z,96910.52
2017-12-29T20:48:59.713Z,96929.69
2017-12-29T20:51:27.986Z,96927.03
2017-12-29T20:53:56.273Z,96931.57
2017-12-29T20:56:24.537Z,96938.75
2017-12-29T20:58:52.795Z,96947.38
2017-12-29T21:01:21.150Z,96955.34
2017-12-29T21:03:49.393Z,96963.16
2017-12-29T21:06:17.676Z,96978.02
2017-12-29T21:08:45.945Z,96985.67
2017-12-29T21:11:14.203Z,96991.31
2017-12-29T21:13:42.501Z,97000.90
2017-12-29T21:16:10.860Z,97011.47
2017-12-29T21:18:39.108Z,97013.09
2017-12-29T21:21:07.378Z,97024.28
2017-12-29T21:23:35.658Z,97031.07
2017-12-29T21:26:03.924Z,97028.64
2017-12-29T21:28:32.952Z,97041.62
2017-12-29T21:31:01.646Z,97037.42
2017-12-29T21:33:29.915Z,97045.08
2017-12-29T21:35:58.200Z,97055.25
2017-12-29T21:38:26.486Z,97065.39
2017-12-29T21:40:54.748Z,97062.83
2017-12-29T21:43:23.049Z,97076.86
2017-12-29T21:45:51.337Z,97078.38
2017-12-29T21:48:19.598Z,97081.37
2017-12-29T21:50:47.857Z,97089.03
2017-12-29T21:53:16.214Z,97095.14
2017-12-29T21:55:45.654Z,97110.16
2017-12-29T21:58:13.925Z,97116.85
2017-12-29T22:00:42.211Z,97121.19
2017-12-29T22:03:10.471Z,97128.06
2017-12-29T22:05:38.733Z,97127.39
2017-12-29T22:08:07.026Z,97138.28
2017-12-29T22:10:35.300Z,97135.30
2017-12-29T22:13:03.578Z,97136.22
2017-12-29T22:15:31.881Z,97135.13
2017-12-29T22:18:00.133Z,97146.34
2017-12-29T22:20:28.446Z,97142.25
2017-12-29T22:22:56.706Z,97143.95
2017-12-29T22:25:24.980Z,97153.54
2017-12-29T22:27:53.255Z,97156.94
2017-12-29T22:30:21.529Z,97159.48
2017-12-29T22:32:49.810Z,97155.37
2017-12-29T22:35:18.093Z,97158.61
2017-12-29T22:37:46.373Z,97165.60
2017-12-29T22:40:15.458Z,97168.02
2017-12-29T22:42:43.771Z,97171.26
2017-12-29T22:45:12.081Z,97185.03
2017-12-29T22:47:41.110Z,97188.85
2017-12-29T22:50:09.389Z,97194.02
2017-12-29T22:52:37.647Z,97201.44
2017-12-29T22:55:05.944Z,97205.03
2017-12-29T22:57:34.237Z,97208.59
2017-12-29T23:00:02.502Z,97228.42
2017-12-29T23:02:30.845Z,97230.54
2017-12-29T23:04:59.122Z,97221.28
2017-12-29T23:07:28.966Z,97233.55
2017-12-29T23:09:57.481Z,97232.81
2017-12-29T23:12:25.763Z,97238.22
2017-12-29T23:14:54.062Z,97242.98
2017-12-29T23:17:22.366Z,97253.41
2017-12-29T23:19:50.641Z,97251.20
2017-12-29T23:22:20.223Z,97253.61
2017-12-29T23:24:48.530Z,97253.02
2017-12-29T23:27:17.557Z,97258.57
2017-12-29T23:29:45.822Z,97254.17
2017-12-29T23:32:14.122Z,97263.27
2017-12-29T23:34:42.396Z,97265.97
2017-12-29T23:37:10.662Z,97262.87
2017-12-29T23:39:38.966Z,97264.52
2017-12-29T23:42:07.942Z,97282.48
2017-12-29T23:44:36.199Z,97290.44
2017-12-29T23:47:04.491Z,97295.39
2017-12-29T23:49:33.477Z,97294.80
2017-12-29T23:52:01.810Z,97304.16
2017-12-29T23:54:30.108Z,97303.11
2017-12-29T23:56:58.391Z,97306.23
2017-12-29T23:59:27.437Z,97311.86
